sensor_id;sensor_type;location;lat;lon;timestamp;P1;durP1;ratioP1;P2;durP2;ratioP2
70532;SDS011;58088;51.186;17.130;2024-02-28T00:00:24;57.60;;;21.30;;
70532;SDS011;58088;51.186;17.130;2024-02-28T00:02:50;57.70;;;19.10;;
70532;SDS011;58088;51.186;17.130;2024-02-28T00:05:16;61.70;;;21.10;;
70532;SDS011;58088;51.186;17.130;2024-02-28T00:07:42;66.10;;;22.90;;
70532;SDS011;58088;51.186;17.130;2024-02-28T00:10:09;67.70;;;22.60;;
70532;SDS011;58088;51.186;17.130;2024-02-28T00:12:35;65.10;;;22.20;;
70532;SDS011;58088;51.186;17.130;2024-02-28T00:15:01;66.80;;;23.10;;
70532;SDS011;58088;51.186;17.130;2024-02-28T00:17:28;61.30;;;22.10;;
70532;SDS011;58088;51.186;17.130;2024-02-28T00:19:54;58.80;;;21.30;;
70532;SDS011;58088;51.186;17.130;2024-02-28T00:22:20;60.30;;;20.80;;
70532;SDS011;58088;51.186;17.130;2024-02-28T00:24:46;60.80;;;21.30;;
70532;SDS011;58088;51.186;17.130;2024-02-28T00:27:13;57.20;;;21.20;;
70532;SDS011;58088;51.186;17.130;2024-02-28T00:29:40;63.80;;;22.10;;
70532;SDS011;58088;51.186;17.130;2024-02-28T00:32:06;58.20;;;20.60;;
70532;SDS011;58088;51.186;17.130;2024-02-28T00:34:32;69.10;;;22.00;;
70532;SDS011;58088;51.186;17.130;2024-02-28T00:36:58;71.30;;;23.50;;
70532;SDS011;58088;51.186;17.130;2024-02-28T00:39:24;63.80;;;22.60;;
70532;SDS011;58088;51.186;17.130;2024-02-28T00:41:50;69.60;;;23.40;;
70532;SDS011;58088;51.186;17.130;2024-02-28T00:44:16;67.70;;;23.40;;
70532;SDS011;58088;51.186;17.130;2024-02-28T00:46:42;71.00;;;23.00;;
70532;SDS011;58088;51.186;17.130;2024-02-28T00:49:09;68.40;;;24.20;;
70532;SDS011;58088;51.186;17.130;2024-02-28T00:51:35;72.10;;;24.00;;
70532;SDS011;58088;51.186;17.130;2024-02-28T00:54:03;70.20;;;20.90;;
70532;SDS011;58088;51.186;17.130;2024-02-28T00:56:29;67.40;;;23.10;;
70532;SDS011;58088;51.186;17.130;2024-02-28T00:58:55;73.40;;;24.20;;
70532;SDS011;58088;51.186;17.130;2024-02-28T01:01:21;68.50;;;24.00;;
70532;SDS011;58088;51.186;17.130;2024-02-28T01:03:48;70.90;;;23.50;;
70532;SDS011;58088;51.186;17.130;2024-02-28T01:06:14;64.80;;;22.90;;
70532;SDS011;58088;51.186;17.130;2024-02-28T01:08:42;72.50;;;24.00;;
70532;SDS011;58088;51.186;17.130;2024-02-28T01:11:10;70.20;;;23.40;;
70532;SDS011;58088;51.186;17.130;2024-02-28T01:13:36;67.10;;;23.20;;
70532;SDS011;58088;51.186;17.130;2024-02-28T01:16:02;67.40;;;23.50;;
70532;SDS011;58088;51.186;17.130;2024-02-28T01:18:28;69.00;;;22.80;;
70532;SDS011;58088;51.186;17.130;2024-02-28T01:20:56;78.10;;;23.90;;
70532;SDS011;58088;51.186;17.130;2024-02-28T01:23:23;72.30;;;25.10;;
70532;SDS011;58088;51.186;17.130;2024-02-28T01:25:49;77.80;;;25.70;;
70532;SDS011;58088;51.186;17.130;2024-02-28T01:28:15;73.60;;;24.30;;
70532;SDS011;58088;51.186;17.130;2024-02-28T01:30:41;71.40;;;24.00;;
70532;SDS011;58088;51.186;17.130;2024-02-28T01:33:08;72.40;;;24.40;;
70532;SDS011;58088;51.186;17.130;2024-02-28T01:35:34;71.30;;;25.10;;
70532;SDS011;58088;51.186;17.130;2024-02-28T01:38:00;69.50;;;23.90;;
70532;SDS011;58088;51.186;17.130;2024-02-28T01:40:26;69.20;;;23.70;;
70532;SDS011;58088;51.186;17.130;2024-02-28T01:42:52;78.70;;;24.50;;
70532;SDS011;58088;51.186;17.130;2024-02-28T01:45:19;82.80;;;25.90;;
70532;SDS011;58088;51.186;17.130;2024-02-28T01:47:45;70.60;;;24.40;;
70532;SDS011;58088;51.186;17.130;2024-02-28T01:50:11;76.30;;;25.20;;
70532;SDS011;58088;51.186;17.130;2024-02-28T01:52:39;69.80;;;24.80;;
70532;SDS011;58088;51.186;17.130;2024-02-28T01:55:13;75.40;;;23.30;;
70532;SDS011;58088;51.186;17.130;2024-02-28T01:57:39;76.70;;;25.40;;
70532;SDS011;58088;51.186;17.130;2024-02-28T02:00:06;72.90;;;23.30;;
70532;SDS011;58088;51.186;17.130;2024-02-28T02:02:37;64.70;;;23.20;;
70532;SDS011;58088;51.186;17.130;2024-02-28T02:05:03;69.90;;;24.00;;
70532;SDS011;58088;51.186;17.130;2024-02-28T02:07:31;78.10;;;23.90;;
70532;SDS011;58088;51.186;17.130;2024-02-28T02:09:57;73.80;;;25.10;;
70532;SDS011;58088;51.186;17.130;2024-02-28T02:12:23;75.40;;;25.00;;
70532;SDS011;58088;51.186;17.130;2024-02-28T02:14:49;75.40;;;25.10;;
70532;SDS011;58088;51.186;17.130;2024-02-28T02:17:16;79.60;;;24.40;;
70532;SDS011;58088;51.186;17.130;2024-02-28T02:19:42;71.70;;;25.50;;
70532;SDS011;58088;51.186;17.130;2024-02-28T02:22:09;71.30;;;22.40;;
70532;SDS011;58088;51.186;17.130;2024-02-28T02:24:39;82.10;;;24.60;;
70532;SDS011;58088;51.186;17.130;2024-02-28T02:27:05;80.40;;;24.60;;
70532;SDS011;58088;51.186;17.130;2024-02-28T02:29:31;87.40;;;25.80;;
70532;SDS011;58088;51.186;17.130;2024-02-28T02:31:58;83.90;;;24.90;;
70532;SDS011;58088;51.186;17.130;2024-02-28T02:34:24;79.30;;;25.80;;
70532;SDS011;58088;51.186;17.130;2024-02-28T02:37:10;73.30;;;23.30;;
70532;SDS011;58088;51.186;17.130;2024-02-28T02:39:36;82.60;;;25.40;;
70532;SDS011;58088;51.186;17.130;2024-02-28T02:42:02;77.70;;;24.00;;
70532;SDS011;58088;51.186;17.130;2024-02-28T02:44:28;75.30;;;24.20;;
70532;SDS011;58088;51.186;17.130;2024-02-28T02:46:55;79.30;;;23.90;;
70532;SDS011;58088;51.186;17.130;2024-02-28T02:49:21;73.40;;;23.30;;
70532;SDS011;58088;51.186;17.130;2024-02-28T02:51:47;78.20;;;24.70;;
70532;SDS011;58088;51.186;17.130;2024-02-28T02:54:13;81.30;;;24.90;;
70532;SDS011;58088;51.186;17.130;2024-02-28T02:56:42;75.90;;;23.70;;
70532;SDS011;58088;51.186;17.130;2024-02-28T02:59:10;73.80;;;25.30;;
70532;SDS011;58088;51.186;17.130;2024-02-28T03:02:07;67.80;;;22.20;;
70532;SDS011;58088;51.186;17.130;2024-02-28T03:04:51;84.80;;;23.70;;
70532;SDS011;58088;51.186;17.130;2024-02-28T03:07:18;76.00;;;23.40;;
70532;SDS011;58088;51.186;17.130;2024-02-28T03:09:45;72.00;;;23.50;;
70532;SDS011;58088;51.186;17.130;2024-02-28T03:12:12;64.00;;;21.10;;
70532;SDS011;58088;51.186;17.130;2024-02-28T03:14:39;79.40;;;24.30;;
70532;SDS011;58088;51.186;17.130;2024-02-28T03:17:06;74.70;;;24.70;;
70532;SDS011;58088;51.186;17.130;2024-02-28T03:19:33;72.10;;;24.40;;
70532;SDS011;58088;51.186;17.130;2024-02-28T03:22:02;68.90;;;23.30;;
70532;SDS011;58088;51.186;17.130;2024-02-28T03:24:29;69.00;;;25.20;;
70532;SDS011;58088;51.186;17.130;2024-02-28T03:26:57;79.10;;;26.50;;
70532;SDS011;58088;51.186;17.130;2024-02-28T03:29:25;75.10;;;24.80;;
70532;SDS011;58088;51.186;17.130;2024-02-28T03:31:52;70.60;;;24.70;;
70532;SDS011;58088;51.186;17.130;2024-02-28T03:34:20;78.60;;;24.50;;
70532;SDS011;58088;51.186;17.130;2024-02-28T03:36:47;79.80;;;24.80;;
70532;SDS011;58088;51.186;17.130;2024-02-28T03:39:15;78.20;;;24.30;;
70532;SDS011;58088;51.186;17.130;2024-02-28T03:41:43;74.80;;;23.50;;
70532;SDS011;58088;51.186;17.130;2024-02-28T03:44:11;86.50;;;26.10;;
70532;SDS011;58088;51.186;17.130;2024-02-28T03:46:38;78.90;;;24.90;;
70532;SDS011;58088;51.186;17.130;2024-02-28T03:49:06;83.80;;;24.30;;
70532;SDS011;58088;51.186;17.130;2024-02-28T03:51:42;78.90;;;25.10;;
70532;SDS011;58088;51.186;17.130;2024-02-28T03:54:09;72.70;;;25.00;;
70532;SDS011;58088;51.186;17.130;2024-02-28T03:56:35;79.10;;;24.90;;
70532;SDS011;58088;51.186;17.130;2024-02-28T03:59:01;76.70;;;24.70;;
70532;SDS011;58088;51.186;17.130;2024-02-28T04:01:27;76.80;;;24.10;;
70532;SDS011;58088;51.186;17.130;2024-02-28T04:03:53;81.60;;;25.10;;
70532;SDS011;58088;51.186;17.130;2024-02-28T04:06:20;78.20;;;24.30;;
70532;SDS011;58088;51.186;17.130;2024-02-28T04:08:46;81.70;;;25.60;;
70532;SDS011;58088;51.186;17.130;2024-02-28T04:11:13;78.10;;;24.50;;
70532;SDS011;58088;51.186;17.130;2024-02-28T04:13:40;81.90;;;25.40;;
70532;SDS011;58088;51.186;17.130;2024-02-28T04:16:08;77.80;;;25.40;;
70532;SDS011;58088;51.186;17.130;2024-02-28T04:18:35;81.80;;;25.40;;
70532;SDS011;58088;51.186;17.130;2024-02-28T04:21:02;77.80;;;24.50;;
70532;SDS011;58088;51.186;17.130;2024-02-28T04:23:28;80.40;;;25.00;;
70532;SDS011;58088;51.186;17.130;2024-02-28T04:25:54;70.20;;;23.70;;
70532;SDS011;58088;51.186;17.130;2024-02-28T04:28:20;79.90;;;25.90;;
70532;SDS011;58088;51.186;17.130;2024-02-28T04:30:47;71.70;;;23.60;;
70532;SDS011;58088;51.186;17.130;2024-02-28T04:33:13;80.50;;;26.70;;
70532;SDS011;58088;51.186;17.130;2024-02-28T04:35:39;70.90;;;23.70;;
70532;SDS011;58088;51.186;17.130;2024-02-28T04:38:05;73.20;;;25.20;;
70532;SDS011;58088;51.186;17.130;2024-02-28T04:40:31;73.50;;;25.20;;
70532;SDS011;58088;51.186;17.130;2024-02-28T04:42:58;73.40;;;23.40;;
70532;SDS011;58088;51.186;17.130;2024-02-28T04:45:24;53.30;;;19.70;;
70532;SDS011;58088;51.186;17.130;2024-02-28T04:47:51;67.20;;;22.20;;
70532;SDS011;58088;51.186;17.130;2024-02-28T04:50:21;65.10;;;22.50;;
70532;SDS011;58088;51.186;17.130;2024-02-28T04:52:47;70.40;;;22.60;;
70532;SDS011;58088;51.186;17.130;2024-02-28T04:55:13;71.60;;;22.90;;
70532;SDS011;58088;51.186;17.130;2024-02-28T04:57:39;77.40;;;25.10;;
70532;SDS011;58088;51.186;17.130;2024-02-28T05:00:06;71.10;;;24.30;;
70532;SDS011;58088;51.186;17.130;2024-02-28T05:02:37;73.30;;;24.30;;
70532;SDS011;58088;51.186;17.130;2024-02-28T05:05:07;68.20;;;23.30;;
70532;SDS011;58088;51.186;17.130;2024-02-28T05:07:33;66.30;;;21.80;;
70532;SDS011;58088;51.186;17.130;2024-02-28T05:09:59;56.70;;;19.60;;
70532;SDS011;58088;51.186;17.130;2024-02-28T05:12:25;69.70;;;24.20;;
70532;SDS011;58088;51.186;17.130;2024-02-28T05:14:51;62.20;;;21.60;;
70532;SDS011;58088;51.186;17.130;2024-02-28T05:17:17;61.00;;;21.50;;
70532;SDS011;58088;51.186;17.130;2024-02-28T05:19:44;65.40;;;22.40;;
70532;SDS011;58088;51.186;17.130;2024-02-28T05:22:10;57.70;;;19.50;;
70532;SDS011;58088;51.186;17.130;2024-02-28T05:24:37;68.80;;;23.00;;
70532;SDS011;58088;51.186;17.130;2024-02-28T05:27:03;58.90;;;20.40;;
70532;SDS011;58088;51.186;17.130;2024-02-28T05:29:29;53.70;;;19.10;;
70532;SDS011;58088;51.186;17.130;2024-02-28T05:31:55;52.80;;;19.00;;
70532;SDS011;58088;51.186;17.130;2024-02-28T05:34:22;55.90;;;19.10;;
70532;SDS011;58088;51.186;17.130;2024-02-28T05:36:48;51.90;;;17.70;;
70532;SDS011;58088;51.186;17.130;2024-02-28T05:39:16;58.30;;;20.10;;
70532;SDS011;58088;51.186;17.130;2024-02-28T05:41:42;47.80;;;17.20;;
70532;SDS011;58088;51.186;17.130;2024-02-28T05:44:08;48.00;;;16.50;;
70532;SDS011;58088;51.186;17.130;2024-02-28T05:46:34;47.70;;;17.80;;
70532;SDS011;58088;51.186;17.130;2024-02-28T05:49:03;54.20;;;20.00;;
70532;SDS011;58088;51.186;17.130;2024-02-28T05:51:29;51.70;;;18.60;;
70532;SDS011;58088;51.186;17.130;2024-02-28T05:53:56;46.30;;;17.40;;
70532;SDS011;58088;51.186;17.130;2024-02-28T05:56:22;41.10;;;13.40;;
70532;SDS011;58088;51.186;17.130;2024-02-28T05:58:48;48.10;;;16.80;;
70532;SDS011;58088;51.186;17.130;2024-02-28T06:01:17;47.00;;;16.90;;
70532;SDS011;58088;51.186;17.130;2024-02-28T06:03:48;49.00;;;18.20;;
70532;SDS011;58088;51.186;17.130;2024-02-28T06:06:15;52.40;;;18.10;;
70532;SDS011;58088;51.186;17.130;2024-02-28T06:08:41;43.40;;;16.50;;
70532;SDS011;58088;51.186;17.130;2024-02-28T06:11:08;44.90;;;15.60;;
70532;SDS011;58088;51.186;17.130;2024-02-28T06:13:35;48.80;;;18.50;;
70532;SDS011;58088;51.186;17.130;2024-02-28T06:16:02;43.40;;;16.20;;
70532;SDS011;58088;51.186;17.130;2024-02-28T06:18:29;42.80;;;16.90;;
70532;SDS011;58088;51.186;17.130;2024-02-28T06:20:59;40.90;;;16.10;;
70532;SDS011;58088;51.186;17.130;2024-02-28T06:23:29;36.40;;;15.30;;
70532;SDS011;58088;51.186;17.130;2024-02-28T06:25:58;40.90;;;16.60;;
70532;SDS011;58088;51.186;17.130;2024-02-28T06:28:24;41.90;;;16.20;;
70532;SDS011;58088;51.186;17.130;2024-02-28T06:30:51;40.50;;;16.40;;
70532;SDS011;58088;51.186;17.130;2024-02-28T06:33:18;33.90;;;13.50;;
70532;SDS011;58088;51.186;17.130;2024-02-28T06:35:44;40.00;;;16.80;;
70532;SDS011;58088;51.186;17.130;2024-02-28T06:38:11;40.00;;;15.70;;
70532;SDS011;58088;51.186;17.130;2024-02-28T06:40:37;40.60;;;14.80;;
70532;SDS011;58088;51.186;17.130;2024-02-28T06:43:04;42.00;;;15.80;;
70532;SDS011;58088;51.186;17.130;2024-02-28T06:45:31;42.30;;;16.70;;
70532;SDS011;58088;51.186;17.130;2024-02-28T06:47:57;35.60;;;15.80;;
70532;SDS011;58088;51.186;17.130;2024-02-28T06:50:26;35.90;;;15.10;;
70532;SDS011;58088;51.186;17.130;2024-02-28T06:52:53;39.30;;;16.00;;
70532;SDS011;58088;51.186;17.130;2024-02-28T06:55:19;32.10;;;14.20;;
70532;SDS011;58088;51.186;17.130;2024-02-28T06:57:46;34.60;;;14.30;;
70532;SDS011;58088;51.186;17.130;2024-02-28T07:00:13;32.70;;;13.90;;
70532;SDS011;58088;51.186;17.130;2024-02-28T07:02:40;36.00;;;14.30;;
70532;SDS011;58088;51.186;17.130;2024-02-28T07:05:07;28.40;;;12.90;;
70532;SDS011;58088;51.186;17.130;2024-02-28T07:07:34;33.50;;;14.80;;
70532;SDS011;58088;51.186;17.130;2024-02-28T07:10:03;31.20;;;13.50;;
70532;SDS011;58088;51.186;17.130;2024-02-28T07:12:30;35.40;;;15.20;;
70532;SDS011;58088;51.186;17.130;2024-02-28T07:14:57;34.80;;;14.80;;
70532;SDS011;58088;51.186;17.130;2024-02-28T07:17:23;35.10;;;15.70;;
70532;SDS011;58088;51.186;17.130;2024-02-28T07:19:49;26.80;;;12.10;;
70532;SDS011;58088;51.186;17.130;2024-02-28T07:22:17;32.40;;;14.30;;
70532;SDS011;58088;51.186;17.130;2024-02-28T07:24:44;33.60;;;14.00;;
70532;SDS011;58088;51.186;17.130;2024-02-28T07:27:10;35.90;;;15.20;;
70532;SDS011;58088;51.186;17.130;2024-02-28T07:29:37;40.80;;;16.40;;
70532;SDS011;58088;51.186;17.130;2024-02-28T07:32:04;35.40;;;15.40;;
70532;SDS011;58088;51.186;17.130;2024-02-28T07:34:31;30.10;;;13.40;;
70532;SDS011;58088;51.186;17.130;2024-02-28T07:36:58;38.00;;;16.40;;
70532;SDS011;58088;51.186;17.130;2024-02-28T07:39:24;36.50;;;16.00;;
70532;SDS011;58088;51.186;17.130;2024-02-28T07:41:50;36.30;;;15.20;;
70532;SDS011;58088;51.186;17.130;2024-02-28T07:44:17;35.20;;;15.60;;
70532;SDS011;58088;51.186;17.130;2024-02-28T07:46:43;36.40;;;14.80;;
70532;SDS011;58088;51.186;17.130;2024-02-28T07:49:10;33.30;;;14.90;;
70532;SDS011;58088;51.186;17.130;2024-02-28T07:51:36;35.70;;;15.10;;
70532;SDS011;58088;51.186;17.130;2024-02-28T07:54:02;32.20;;;13.60;;
70532;SDS011;58088;51.186;17.130;2024-02-28T07:56:29;34.80;;;15.20;;
70532;SDS011;58088;51.186;17.130;2024-02-28T07:58:55;24.90;;;11.40;;
70532;SDS011;58088;51.186;17.130;2024-02-28T08:01:22;30.40;;;11.90;;
70532;SDS011;58088;51.186;17.130;2024-02-28T08:03:51;29.40;;;13.70;;
70532;SDS011;58088;51.186;17.130;2024-02-28T08:06:17;27.50;;;12.70;;
70532;SDS011;58088;51.186;17.130;2024-02-28T08:08:44;32.40;;;14.40;;
70532;SDS011;58088;51.186;17.130;2024-02-28T08:11:12;30.90;;;13.60;;
70532;SDS011;58088;51.186;17.130;2024-02-28T08:13:39;27.70;;;13.10;;
70532;SDS011;58088;51.186;17.130;2024-02-28T08:16:05;32.00;;;13.90;;
70532;SDS011;58088;51.186;17.130;2024-02-28T08:18:33;31.60;;;14.10;;
70532;SDS011;58088;51.186;17.130;2024-02-28T08:21:01;29.90;;;12.20;;
70532;SDS011;58088;51.186;17.130;2024-02-28T08:23:31;29.10;;;12.80;;
70532;SDS011;58088;51.186;17.130;2024-02-28T08:25:57;27.70;;;13.00;;
70532;SDS011;58088;51.186;17.130;2024-02-28T08:28:23;29.70;;;13.90;;
70532;SDS011;58088;51.186;17.130;2024-02-28T08:30:50;26.70;;;13.20;;
70532;SDS011;58088;51.186;17.130;2024-02-28T08:33:16;30.40;;;14.30;;
70532;SDS011;58088;51.186;17.130;2024-02-28T08:35:43;31.10;;;13.40;;
70532;SDS011;58088;51.186;17.130;2024-02-28T08:38:09;29.50;;;12.50;;
70532;SDS011;58088;51.186;17.130;2024-02-28T08:40:35;27.50;;;12.60;;
70532;SDS011;58088;51.186;17.130;2024-02-28T08:43:02;26.50;;;12.60;;
70532;SDS011;58088;51.186;17.130;2024-02-28T08:45:28;27.70;;;13.20;;
70532;SDS011;58088;51.186;17.130;2024-02-28T08:47:57;27.70;;;12.20;;
70532;SDS011;58088;51.186;17.130;2024-02-28T08:50:27;26.00;;;11.70;;
70532;SDS011;58088;51.186;17.130;2024-02-28T08:52:55;26.40;;;12.50;;
70532;SDS011;58088;51.186;17.130;2024-02-28T08:55:21;27.50;;;12.70;;
70532;SDS011;58088;51.186;17.130;2024-02-28T08:57:53;28.80;;;12.70;;
70532;SDS011;58088;51.186;17.130;2024-02-28T09:00:36;26.10;;;11.70;;
70532;SDS011;58088;51.186;17.130;2024-02-28T09:03:04;21.90;;;11.00;;
70532;SDS011;58088;51.186;17.130;2024-02-28T09:05:30;21.90;;;11.40;;
70532;SDS011;58088;51.186;17.130;2024-02-28T09:07:56;24.20;;;11.30;;
70532;SDS011;58088;51.186;17.130;2024-02-28T09:10:23;22.70;;;10.70;;
70532;SDS011;58088;51.186;17.130;2024-02-28T09:12:50;24.50;;;11.60;;
70532;SDS011;58088;51.186;17.130;2024-02-28T09:15:16;22.10;;;10.00;;
70532;SDS011;58088;51.186;17.130;2024-02-28T09:17:43;24.00;;;10.80;;
70532;SDS011;58088;51.186;17.130;2024-02-28T09:20:10;21.80;;;10.60;;
70532;SDS011;58088;51.186;17.130;2024-02-28T09:22:37;21.40;;;10.70;;
70532;SDS011;58088;51.186;17.130;2024-02-28T09:25:04;17.90;;;8.70;;
70532;SDS011;58088;51.186;17.130;2024-02-28T09:27:31;20.30;;;9.10;;
70532;SDS011;58088;51.186;17.130;2024-02-28T09:29:58;18.10;;;7.90;;
70532;SDS011;58088;51.186;17.130;2024-02-28T09:32:24;16.40;;;7.90;;
70532;SDS011;58088;51.186;17.130;2024-02-28T09:34:50;17.90;;;8.70;;
70532;SDS011;58088;51.186;17.130;2024-02-28T09:37:16;17.30;;;7.80;;
70532;SDS011;58088;51.186;17.130;2024-02-28T09:39:42;15.80;;;7.60;;
70532;SDS011;58088;51.186;17.130;2024-02-28T09:42:09;13.30;;;6.40;;
70532;SDS011;58088;51.186;17.130;2024-02-28T09:44:36;14.60;;;8.30;;
70532;SDS011;58088;51.186;17.130;2024-02-28T09:47:04;13.10;;;6.20;;
70532;SDS011;58088;51.186;17.130;2024-02-28T09:49:31;13.90;;;6.10;;
70532;SDS011;58088;51.186;17.130;2024-02-28T09:52:00;12.60;;;5.60;;
70532;SDS011;58088;51.186;17.130;2024-02-28T09:54:29;12.80;;;5.90;;
70532;SDS011;58088;51.186;17.130;2024-02-28T09:56:58;12.70;;;5.80;;
70532;SDS011;58088;51.186;17.130;2024-02-28T09:59:33;11.60;;;5.80;;
70532;SDS011;58088;51.186;17.130;2024-02-28T10:02:02;11.80;;;5.60;;
70532;SDS011;58088;51.186;17.130;2024-02-28T10:04:29;11.20;;;4.80;;
70532;SDS011;58088;51.186;17.130;2024-02-28T10:06:56;15.70;;;7.00;;
70532;SDS011;58088;51.186;17.130;2024-02-28T10:09:25;9.60;;;4.40;;
70532;SDS011;58088;51.186;17.130;2024-02-28T10:11:52;11.40;;;5.50;;
70532;SDS011;58088;51.186;17.130;2024-02-28T10:14:18;11.40;;;6.10;;
70532;SDS011;58088;51.186;17.130;2024-02-28T10:16:45;12.80;;;5.80;;
70532;SDS011;58088;51.186;17.130;2024-02-28T10:19:11;11.20;;;5.30;;
70532;SDS011;58088;51.186;17.130;2024-02-28T10:21:38;10.70;;;5.90;;
70532;SDS011;58088;51.186;17.130;2024-02-28T10:24:05;11.90;;;5.80;;
70532;SDS011;58088;51.186;17.130;2024-02-28T10:26:31;11.70;;;5.70;;
70532;SDS011;58088;51.186;17.130;2024-02-28T10:29:03;10.80;;;4.70;;
70532;SDS011;58088;51.186;17.130;2024-02-28T10:31:32;11.10;;;5.40;;
70532;SDS011;58088;51.186;17.130;2024-02-28T10:34:00;11.40;;;5.80;;
70532;SDS011;58088;51.186;17.130;2024-02-28T10:36:31;12.60;;;6.30;;
70532;SDS011;58088;51.186;17.130;2024-02-28T10:38:59;10.20;;;4.70;;
70532;SDS011;58088;51.186;17.130;2024-02-28T10:41:28;11.30;;;5.00;;
70532;SDS011;58088;51.186;17.130;2024-02-28T10:43:54;10.10;;;4.60;;
70532;SDS011;58088;51.186;17.130;2024-02-28T10:46:20;10.90;;;4.20;;
70532;SDS011;58088;51.186;17.130;2024-02-28T10:48:49;12.00;;;5.50;;
70532;SDS011;58088;51.186;17.130;2024-02-28T10:51:23;13.40;;;6.90;;
70532;SDS011;58088;51.186;17.130;2024-02-28T10:56:39;11.30;;;5.10;;
70532;SDS011;58088;51.186;17.130;2024-02-28T10:59:07;9.60;;;4.40;;
70532;SDS011;58088;51.186;17.130;2024-02-28T11:01:42;11.20;;;5.40;;
70532;SDS011;58088;51.186;17.130;2024-02-28T11:04:14;11.20;;;5.70;;
70532;SDS011;58088;51.186;17.130;2024-02-28T11:06:54;13.00;;;5.60;;
70532;SDS011;58088;51.186;17.130;2024-02-28T11:09:31;12.10;;;5.20;;
70532;SDS011;58088;51.186;17.130;2024-02-28T11:11:58;10.40;;;5.00;;
70532;SDS011;58088;51.186;17.130;2024-02-28T11:14:25;11.90;;;5.60;;
70532;SDS011;58088;51.186;17.130;2024-02-28T11:17:03;10.30;;;5.10;;
70532;SDS011;58088;51.186;17.130;2024-02-28T11:19:33;13.20;;;6.30;;
70532;SDS011;58088;51.186;17.130;2024-02-28T11:22:05;13.90;;;6.40;;
70532;SDS011;58088;51.186;17.130;2024-02-28T11:24:33;12.70;;;5.60;;
70532;SDS011;58088;51.186;17.130;2024-02-28T11:27:00;10.90;;;5.30;;
70532;SDS011;58088;51.186;17.130;2024-02-28T11:29:29;13.00;;;6.30;;
70532;SDS011;58088;51.186;17.130;2024-02-28T11:31:59;13.90;;;6.20;;
70532;SDS011;58088;51.186;17.130;2024-02-28T11:34:33;16.20;;;7.00;;
70532;SDS011;58088;51.186;17.130;2024-02-28T11:37:06;13.90;;;6.90;;
70532;SDS011;58088;51.186;17.130;2024-02-28T11:39:34;13.70;;;5.90;;
70532;SDS011;58088;51.186;17.130;2024-02-28T11:42:28;13.20;;;7.00;;
70532;SDS011;58088;51.186;17.130;2024-02-28T11:44:55;13.80;;;7.50;;
70532;SDS011;58088;51.186;17.130;2024-02-28T11:47:23;13.40;;;6.50;;
70532;SDS011;58088;51.186;17.130;2024-02-28T11:49:50;14.20;;;6.10;;
70532;SDS011;58088;51.186;17.130;2024-02-28T11:52:16;14.20;;;6.10;;
70532;SDS011;58088;51.186;17.130;2024-02-28T11:54:42;11.90;;;5.50;;
70532;SDS011;58088;51.186;17.130;2024-02-28T11:57:10;11.40;;;5.50;;
70532;SDS011;58088;51.186;17.130;2024-02-28T11:59:40;10.10;;;5.80;;
70532;SDS011;58088;51.186;17.130;2024-02-28T12:02:13;11.00;;;5.50;;
70532;SDS011;58088;51.186;17.130;2024-02-28T12:04:43;13.50;;;6.50;;
70532;SDS011;58088;51.186;17.130;2024-02-28T12:07:11;12.10;;;6.10;;
70532;SDS011;58088;51.186;17.130;2024-02-28T12:09:37;11.60;;;6.00;;
70532;SDS011;58088;51.186;17.130;2024-02-28T12:12:07;13.00;;;6.80;;
70532;SDS011;58088;51.186;17.130;2024-02-28T12:14:36;12.10;;;5.60;;
70532;SDS011;58088;51.186;17.130;2024-02-28T12:17:08;13.50;;;6.90;;
70532;SDS011;58088;51.186;17.130;2024-02-28T12:19:36;10.10;;;4.90;;
70532;SDS011;58088;51.186;17.130;2024-02-28T12:22:12;12.70;;;6.20;;
70532;SDS011;58088;51.186;17.130;2024-02-28T12:24:39;12.20;;;5.70;;
70532;SDS011;58088;51.186;17.130;2024-02-28T12:27:06;12.70;;;6.60;;
70532;SDS011;58088;51.186;17.130;2024-02-28T12:29:32;12.10;;;5.90;;
70532;SDS011;58088;51.186;17.130;2024-02-28T12:32:02;14.10;;;6.70;;
70532;SDS011;58088;51.186;17.130;2024-02-28T12:34:32;13.00;;;6.10;;
70532;SDS011;58088;51.186;17.130;2024-02-28T12:36:58;11.30;;;5.80;;
70532;SDS011;58088;51.186;17.130;2024-02-28T12:39:28;11.40;;;5.40;;
70532;SDS011;58088;51.186;17.130;2024-02-28T12:41:54;11.20;;;5.70;;
70532;SDS011;58088;51.186;17.130;2024-02-28T12:44:21;13.50;;;6.30;;
70532;SDS011;58088;51.186;17.130;2024-02-28T12:46:50;12.20;;;6.00;;
70532;SDS011;58088;51.186;17.130;2024-02-28T12:49:17;11.20;;;5.40;;
70532;SDS011;58088;51.186;17.130;2024-02-28T12:51:45;12.50;;;6.30;;
70532;SDS011;58088;51.186;17.130;2024-02-28T12:54:14;10.00;;;4.70;;
70532;SDS011;58088;51.186;17.130;2024-02-28T12:56:41;12.10;;;5.60;;
70532;SDS011;58088;51.186;17.130;2024-02-28T12:59:12;11.60;;;5.90;;
70532;SDS011;58088;51.186;17.130;2024-02-28T13:01:40;12.60;;;6.10;;
70532;SDS011;58088;51.186;17.130;2024-02-28T13:04:07;11.80;;;5.00;;
70532;SDS011;58088;51.186;17.130;2024-02-28T13:06:33;13.00;;;6.10;;
70532;SDS011;58088;51.186;17.130;2024-02-28T13:09:00;12.70;;;6.00;;
70532;SDS011;58088;51.186;17.130;2024-02-28T13:11:32;12.30;;;5.60;;
70532;SDS011;58088;51.186;17.130;2024-02-28T13:14:00;12.60;;;5.40;;
70532;SDS011;58088;51.186;17.130;2024-02-28T13:16:27;11.90;;;5.50;;
70532;SDS011;58088;51.186;17.130;2024-02-28T13:18:53;13.70;;;6.50;;
70532;SDS011;58088;51.186;17.130;2024-02-28T13:21:20;16.10;;;7.40;;
70532;SDS011;58088;51.186;17.130;2024-02-28T13:23:47;15.50;;;7.10;;
70532;SDS011;58088;51.186;17.130;2024-02-28T13:26:15;12.60;;;5.20;;
70532;SDS011;58088;51.186;17.130;2024-02-28T13:28:46;13.40;;;6.00;;
70532;SDS011;58088;51.186;17.130;2024-02-28T13:31:17;10.90;;;5.90;;
70532;SDS011;58088;51.186;17.130;2024-02-28T13:33:46;13.20;;;6.20;;
70532;SDS011;58088;51.186;17.130;2024-02-28T13:36:33;17.20;;;6.90;;
70532;SDS011;58088;51.186;17.130;2024-02-28T13:39:03;14.10;;;6.20;;
70532;SDS011;58088;51.186;17.130;2024-02-28T13:41:29;13.80;;;6.20;;
70532;SDS011;58088;51.186;17.130;2024-02-28T13:43:57;11.90;;;5.30;;
70532;SDS011;58088;51.186;17.130;2024-02-28T13:46:23;16.70;;;7.70;;
70532;SDS011;58088;51.186;17.130;2024-02-28T13:48:53;16.40;;;7.90;;
70532;SDS011;58088;51.186;17.130;2024-02-28T13:51:19;12.40;;;6.30;;
70532;SDS011;58088;51.186;17.130;2024-02-28T13:53:46;16.10;;;7.80;;
70532;SDS011;58088;51.186;17.130;2024-02-28T13:56:12;16.00;;;7.70;;
70532;SDS011;58088;51.186;17.130;2024-02-28T13:58:38;15.20;;;7.00;;
70532;SDS011;58088;51.186;17.130;2024-02-28T14:01:05;16.00;;;7.90;;
70532;SDS011;58088;51.186;17.130;2024-02-28T14:03:34;17.20;;;6.90;;
70532;SDS011;58088;51.186;17.130;2024-02-28T14:06:00;12.30;;;5.00;;
70532;SDS011;58088;51.186;17.130;2024-02-28T14:08:26;15.50;;;6.60;;
70532;SDS011;58088;51.186;17.130;2024-02-28T14:10:53;15.20;;;6.30;;
70532;SDS011;58088;51.186;17.130;2024-02-28T14:13:20;11.80;;;5.50;;
70532;SDS011;58088;51.186;17.130;2024-02-28T14:15:47;12.70;;;5.80;;
70532;SDS011;58088;51.186;17.130;2024-02-28T14:18:13;11.60;;;4.90;;